Time;durP1;ratioP1;P1;durP2;ratioP2;P2;SDS_P1;SDS_P2;PMS_P1;PMS_P2;Temp;Humidity;BMP_temperature;BMP_pressure;BME280_temperature;BME280_humidity;BME280_pressure;Samples;Min_cycle;Max_cycle;Signal;HPM_P1;HPM_P2
2022/05/24 06:18:29;;;;;;;6.27;5.87;;;19.20;99.90;;;;;;5293354;23;20465;-75
2022/05/24 06:20:56;;;;;;;7.17;6.47;;;19.30;99.90;;;;;;4861698;29;20476;-77
2022/05/24 06:23:24;;;;;;;6.30;5.80;;;19.40;99.90;;;;;;4861234;29;20792;-77
2022/05/24 06:25:51;;;;;;;10.40;9.40;;;19.50;99.90;;;;;;4852335;29;20499;-77
2022/05/24 06:28:19;;;;;;;10.23;9.23;;;19.60;99.90;;;;;;4852783;29;20483;-77
2022/05/24 06:30:46;;;;;;;8.40;7.70;;;19.70;99.90;;;;;;4862261;29;20865;-77
2022/05/24 06:33:14;;;;;;;6.80;6.30;;;19.80;99.90;;;;;;4860969;29;20568;-78
2022/05/24 06:35:43;;;;;;;6.80;6.20;;;19.80;99.90;;;;;;4861350;29;20862;-77
2022/05/24 06:38:10;;;;;;;9.37;8.47;;;19.90;99.90;;;;;;4860879;29;20480;-87
2022/05/24 06:40:38;;;;;;;9.83;9.03;;;19.90;99.90;;;;;;4861995;29;20508;-88
2022/05/24 06:43:05;;;;;;;7.17;6.67;;;19.90;99.90;;;;;;4861373;29;20504;-87
2022/05/24 06:45:32;;;;;;;11.13;9.97;;;19.90;99.90;;;;;;4861908;29;20536;-87
2022/05/24 06:47:59;;;;;;;8.70;7.80;;;19.90;99.90;;;;;;4870965;29;20474;-88
2022/05/24 06:50:26;;;;;;;8.77;7.97;;;19.90;99.90;;;;;;4860420;29;20496;-76
2022/05/24 06:52:58;;;;;;;6.40;6.00;;;19.90;99.90;;;;;;4861210;29;20824;-77
2022/05/24 06:55:27;;;;;;;5.60;5.27;;;19.90;99.90;;;;;;4860732;29;20811;-77
2022/05/24 06:57:54;;;;;;;5.83;5.33;;;19.90;99.90;;;;;;4861176;29;20473;-77
2022/05/24 07:03:09;;;;;;;4.27;3.93;;;19.90;99.90;;;;;;4862098;29;20559;-77
2022/05/24 07:05:37;;;;;;;4.47;4.07;;;20.00;99.90;;;;;;4860373;29;20891;-76
2022/05/24 07:08:06;;;;;;;4.77;4.37;;;20.00;99.90;;;;;;4861847;29;20477;-88
2022/05/24 07:10:35;;;;;;;5.50;5.10;;;20.10;99.90;;;;;;4862809;29;20630;-88
2022/05/24 07:13:04;;;;;;;5.37;4.97;;;20.10;99.90;;;;;;4863698;29;20511;-87
2022/05/24 07:15:32;;;;;;;4.87;4.57;;;20.10;99.90;;;;;;4862792;29;20489;-86
2022/05/24 07:18:01;;;;;;;4.47;4.13;;;20.20;99.90;;;;;;4863036;29;20487;-87
2022/05/24 07:20:33;;;;;;;4.80;4.40;;;20.40;99.90;;;;;;4863759;29;20477;-87
2022/05/24 07:26:07;;;;;;;3.50;3.20;;;20.60;99.90;;;;;;4875361;29;20534;-87
2022/05/24 07:28:35;;;;;;;6.27;5.73;;;20.60;99.90;;;;;;4886622;29;20488;-87
2022/05/24 07:31:03;;;;;;;4.90;4.07;;;20.70;99.90;;;;;;4874824;29;20482;-87
2022/05/24 07:33:30;;;;;;;3.97;3.57;;;20.70;99.90;;;;;;4882235;29;20468;-87
2022/05/24 07:35:57;;;;;;;3.17;2.90;;;20.80;99.90;;;;;;4882868;29;20479;-87
2022/05/24 07:38:25;;;;;;;3.70;3.40;;;20.80;99.90;;;;;;4878989;29;20504;-87
2022/05/24 07:46:23;;;;;;;4.10;3.80;;;20.90;99.90;;;;;;4877739;29;20478;-85
2022/05/24 07:48:50;;;;;;;3.93;3.60;;;20.90;99.90;;;;;;4877996;29;20530;-85
2022/05/24 07:51:17;;;;;;;5.83;4.17;;;20.90;99.90;;;;;;4873652;29;20798;-87
2022/05/24 07:53:45;;;;;;;3.50;3.20;;;20.80;99.90;;;;;;4876622;29;20490;-86
2022/05/24 07:56:15;;;;;;;4.13;3.43;;;20.70;99.90;;;;;;4867518;29;20482;-86
2022/05/24 07:58:42;;;;;;;3.70;3.40;;;20.70;99.90;;;;;;4869527;29;20474;-86
2022/05/24 08:01:10;;;;;;;3.17;2.87;;;20.70;99.90;;;;;;4874211;29;20972;-87
2022/05/24 08:04:29;;;;;;;3.17;2.87;;;20.70;99.90;;;;;;4868018;29;20477;-77
2022/05/24 08:06:56;;;;;;;3.47;3.17;;;20.60;99.90;;;;;;4858900;29;20471;-77
2022/05/24 08:09:32;;;;;;;2.93;2.63;;;20.50;99.90;;;;;;4865569;29;20456;-77
2022/05/24 08:11:59;;;;;;;3.23;2.93;;;20.50;99.90;;;;;;4866659;29;20591;-76
2022/05/24 08:14:26;;;;;;;2.90;2.70;;;20.60;99.90;;;;;;4865596;29;20471;-76
2022/05/24 08:16:53;;;;;;;4.07;3.27;;;20.70;99.90;;;;;;4866125;29;20811;-77
2022/05/24 08:19:20;;;;;;;2.23;2.10;;;20.90;99.90;;;;;;4865317;29;20546;-77
2022/05/24 08:21:56;;;;;;;3.50;2.83;;;20.90;99.90;;;;;;4866431;29;20535;-76
2022/05/24 08:24:23;;;;;;;4.30;2.60;;;21.00;99.90;;;;;;4865801;29;20479;-76
2022/05/24 08:26:51;;;;;;;2.80;2.60;;;21.00;99.90;;;;;;4865888;29;20488;-77
2022/05/24 08:29:18;;;;;;;2.73;2.53;;;21.00;99.90;;;;;;4865709;29;20850;-76
2022/05/24 08:31:45;;;;;;;2.93;2.63;;;20.90;99.90;;;;;;4866607;29;20508;-77
2022/05/24 08:34:14;;;;;;;3.50;3.20;;;20.90;99.90;;;;;;4865300;29;20476;-77
2022/05/24 08:36:41;;;;;;;3.20;3.00;;;20.80;99.90;;;;;;4865553;29;20480;-77
2022/05/24 08:39:08;;;;;;;2.60;2.40;;;20.70;99.90;;;;;;4862878;29;20874;-77
2022/05/24 08:41:58;;;;;;;3.07;2.80;;;20.70;99.90;;;;;;4865888;29;20481;-86
2022/05/24 08:50:03;;;;;;;2.97;2.33;;;20.60;99.90;;;;;;4863824;29;20506;-86
2022/05/24 08:52:36;;;;;;;2.83;2.47;;;20.60;99.90;;;;;;4863701;29;20858;-86
2022/05/24 08:55:06;;;;;;;2.33;2.13;;;20.50;99.90;;;;;;4863319;29;20468;-76
2022/05/24 08:57:43;;;;;;;4.23;2.10;;;20.50;99.90;;;;;;4861069;29;20457;-86
2022/05/24 09:00:13;;;;;;;4.37;2.70;;;20.60;99.90;;;;;;4863049;29;20478;-86
2022/05/24 09:02:45;;;;;;;1.90;1.80;;;20.70;99.90;;;;;;4863206;29;20900;-86
2022/05/24 09:05:21;;;;;;;1.97;1.87;;;20.70;99.90;;;;;;4863546;29;20826;-77
2022/05/24 09:08:07;;;;;;;2.43;2.23;;;20.90;99.90;;;;;;4862539;29;20887;-76
2022/05/24 09:10:52;;;;;;;2.40;2.30;;;21.00;99.90;;;;;;4854072;29;20567;-76
2022/05/24 09:14:04;;;;;;;1.70;1.60;;;21.10;99.90;;;;;;4862763;29;20539;-77
2022/05/24 09:16:37;;;;;;;1.90;1.80;;;21.30;99.90;;;;;;4824394;29;20485;-76
2022/05/24 09:19:11;;;;;;;2.10;1.90;;;21.40;99.50;;;;;;4824226;29;21015;-77
2022/05/24 09:21:42;;;;;;;1.90;1.80;;;21.40;98.60;;;;;;4847521;29;20463;-76
2022/05/24 09:24:17;;;;;;;1.97;1.50;;;21.40;98.50;;;;;;4862723;29;20550;-76
2022/05/24 09:27:03;;;;;;;2.13;1.73;;;21.50;98.60;;;;;;4862517;29;20866;-76
2022/05/24 09:29:32;;;;;;;1.93;1.80;;;21.60;98.30;;;;;;4862675;29;20566;-87
2022/05/24 09:32:10;;;;;;;2.57;1.40;;;21.60;98.30;;;;;;4862581;29;20509;-87
2022/05/24 09:34:38;;;;;;;1.87;1.67;;;21.70;98.10;;;;;;4862839;29;20480;-87
2022/05/24 09:37:16;;;;;;;1.97;1.87;;;21.80;98.00;;;;;;4865715;29;20479;-86
2022/05/24 09:39:57;;;;;;;1.83;1.60;;;21.90;97.80;;;;;;4850826;29;20476;-87
2022/05/24 09:42:52;;;;;;;3.20;2.20;;;22.10;97.50;;;;;;4860835;29;20584;-87
2022/05/24 09:46:02;;;;;;;2.40;1.70;;;22.20;97.00;;;;;;4882703;29;20480;-87
2022/05/24 09:48:32;;;;;;;1.73;1.30;;;22.20;97.00;;;;;;4885261;29;20483;-86
2022/05/24 09:51:03;;;;;;;7.03;1.70;;;22.30;96.10;;;;;;4879410;29;20487;-86
2022/05/24 09:53:33;;;;;;;1.50;1.40;;;22.30;95.80;;;;;;4853908;29;20524;-86
2022/05/24 09:56:02;;;;;;;1.50;1.37;;;22.40;95.50;;;;;;4862823;29;20524;-86
2022/05/24 09:58:34;;;;;;;1.63;1.53;;;22.50;95.50;;;;;;4861708;29;20539;-87
2022/05/24 10:01:08;;;;;;;2.03;1.50;;;22.60;95.10;;;;;;4862646;29;20571;-87
2022/05/24 10:03:39;;;;;;;1.93;1.83;;;22.80;95.30;;;;;;4853586;29;20840;-88
2022/05/24 10:06:21;;;;;;;2.00;1.60;;;22.80;95.10;;;;;;4861921;29;20484;-87
2022/05/24 10:08:51;;;;;;;1.80;1.53;;;22.90;94.40;;;;;;4862932;29;20495;-87
2022/05/24 10:11:37;;;;;;;2.10;1.73;;;23.00;93.90;;;;;;4862004;29;20475;-87
2022/05/24 10:14:17;;;;;;;2.60;1.80;;;23.00;93.30;;;;;;4861640;29;20483;-86
2022/05/24 10:16:51;;;;;;;1.60;1.50;;;23.00;93.10;;;;;;4863204;29;20480;-87
2022/05/24 10:19:41;;;;;;;1.97;1.87;;;23.00;93.00;;;;;;4862886;29;20492;-86
2022/05/24 10:22:20;;;;;;;1.80;1.70;;;23.00;92.90;;;;;;4863190;29;20868;-86
2022/05/24 10:25:03;;;;;;;1.60;1.50;;;23.00;92.40;;;;;;4862586;29;20579;-87
2022/05/24 10:27:38;;;;;;;1.43;1.33;;;23.10;92.20;;;;;;4863176;29;20476;-87
2022/05/24 10:30:11;;;;;;;1.70;1.40;;;23.10;92.30;;;;;;4862914;29;20467;-87
2022/05/24 10:39:11;;;;;;;6.20;2.70;;;23.30;92.90;;;;;;4853288;29;20528;-87
2022/05/24 10:41:51;;;;;;;6.70;3.17;;;23.30;92.90;;;;;;4861610;29;20882;-87
2022/05/24 10:44:26;;;;;;;3.60;2.70;;;23.40;92.90;;;;;;4861509;29;20480;-87
2022/05/24 10:47:01;;;;;;;6.53;2.60;;;23.50;92.30;;;;;;4855557;29;20482;-87
2022/05/24 10:49:36;;;;;;;4.37;2.23;;;23.50;91.70;;;;;;4879224;29;20486;-76
2022/05/24 10:52:10;;;;;;;3.17;2.40;;;23.60;91.90;;;;;;4869058;29;20464;-77
2022/05/24 10:54:50;;;;;;;3.10;1.83;;;23.60;91.70;;;;;;4861387;29;20512;-77
2022/05/24 10:57:23;;;;;;;2.87;2.40;;;23.60;91.60;;;;;;4861921;29;20815;-87
2022/05/24 11:00:00;;;;;;;1.83;1.50;;;23.70;91.50;;;;;;4870976;29;20480;-85
2022/05/24 11:02:36;;;;;;;2.83;2.40;;;23.80;91.50;;;;;;4861677;29;20538;-85
2022/05/24 11:05:11;;;;;;;4.20;1.40;;;23.80;91.00;;;;;;4864661;29;20474;-86
2022/05/24 11:07:58;;;;;;;2.67;2.47;;;23.80;89.80;;;;;;4852884;29;20476;-85
2022/05/24 11:10:35;;;;;;;3.53;3.20;;;23.80;90.00;;;;;;4863115;29;20495;-87
2022/05/24 11:13:11;;;;;;;9.10;3.90;;;23.90;90.20;;;;;;4863283;29;20505;-85
2022/05/24 11:15:40;;;;;;;7.10;3.50;;;24.00;89.50;;;;;;4863646;29;20464;-87
2022/05/24 11:18:14;;;;;;;4.07;3.77;;;24.10;89.70;;;;;;4862659;29;20544;-86
2022/05/24 11:20:51;;;;;;;5.80;3.50;;;24.20;90.10;;;;;;4862955;29;20474;-86
2022/05/24 11:23:23;;;;;;;6.47;3.30;;;24.30;90.10;;;;;;4860990;29;20811;-86
2022/05/24 11:25:54;;;;;;;3.17;2.87;;;24.30;89.70;;;;;;4861431;29;20471;-87
2022/05/24 11:28:26;;;;;;;3.67;2.60;;;24.40;89.30;;;;;;4861079;29;20472;-76
2022/05/24 11:30:58;;;;;;;4.30;2.60;;;24.40;89.10;;;;;;4860414;29;20578;-76
2022/05/24 11:33:43;;;;;;;5.10;2.30;;;24.40;89.00;;;;;;4859519;29;20476;-76
2022/05/24 11:36:40;;;;;;;4.67;2.70;;;24.40;88.10;;;;;;4860979;29;20484;-86
2022/05/24 11:39:15;;;;;;;5.93;2.10;;;24.40;87.80;;;;;;4851742;29;20574;-86
2022/05/24 11:41:45;;;;;;;4.90;2.47;;;24.40;87.10;;;;;;4860946;29;20476;-86
2022/05/24 11:44:33;;;;;;;2.17;2.03;;;24.40;86.50;;;;;;4860831;29;20480;-86
2022/05/24 11:47:00;;;;;;;2.47;1.60;;;24.40;85.70;;;;;;4864638;29;20467;-87
2022/05/24 11:50:05;;;;;;;2.67;1.70;;;24.40;85.80;;;;;;4879838;29;20476;-86
2022/05/24 11:53:00;;;;;;;2.73;2.43;;;24.30;86.10;;;;;;4865327;29;20486;-87
2022/05/24 11:55:46;;;;;;;1.97;1.77;;;24.30;85.80;;;;;;4861106;29;20477;-86
2022/05/24 11:58:49;;;;;;;2.30;2.10;;;24.30;86.70;;;;;;4861465;29;20482;-87
2022/05/24 12:01:45;;;;;;;2.33;2.10;;;24.30;87.10;;;;;;4862914;29;20483;-86
2022/05/24 12:10:05;;;;;;;1.93;1.83;;;24.30;88.00;;;;;;4862476;29;20609;-81
2022/05/24 12:12:35;;;;;;;2.23;2.10;;;24.20;88.30;;;;;;4864252;29;20504;-76
2022/05/24 12:15:17;;;;;;;2.27;2.07;;;24.20;88.60;;;;;;4862668;29;20510;-76
2022/05/24 12:17:46;;;;;;;1.80;1.70;;;24.20;88.40;;;;;;4863781;29;20492;-76
2022/05/24 12:20:52;;;;;;;2.23;1.97;;;24.20;88.20;;;;;;4863222;29;20472;-76
2022/05/24 12:23:35;;;;;;;2.70;1.63;;;24.20;88.60;;;;;;4862813;29;20535;-76
2022/05/24 12:26:04;;;;;;;2.30;2.20;;;24.20;88.60;;;;;;4862814;29;20563;-76
2022/05/24 12:28:46;;;;;;;2.03;1.93;;;24.20;89.70;;;;;;4863392;29;20503;-76
2022/05/24 12:31:29;;;;;;;4.20;2.00;;;24.20;89.30;;;;;;4862981;29;20563;-77
2022/05/24 12:33:58;;;;;;;2.10;2.00;;;24.30;89.70;;;;;;4863306;29;20535;-86
2022/05/24 12:36:34;;;;;;;1.80;1.70;;;24.30;89.90;;;;;;4863790;29;20495;-77
2022/05/24 12:39:12;;;;;;;2.90;2.07;;;24.30;90.00;;;;;;4863238;29;20472;-87
2022/05/24 12:41:41;;;;;;;1.60;1.50;;;24.20;87.90;;;;;;4864409;29;20539;-87
2022/05/24 12:44:15;;;;;;;2.20;1.97;;;24.10;88.30;;;;;;4863026;29;20552;-77
2022/05/24 12:46:46;;;;;;;2.20;2.10;;;24.10;89.20;;;;;;4867622;29;20494;-87
2022/05/24 12:49:18;;;;;;;2.23;1.90;;;24.00;89.50;;;;;;4881918;29;20543;-87
2022/05/24 12:52:22;;;;;;;2.30;1.57;;;23.90;89.50;;;;;;4873937;29;20472;-87
2022/05/24 12:54:53;;;;;;;2.27;2.07;;;23.90;88.70;;;;;;4863201;29;20557;-75
2022/05/24 12:57:22;;;;;;;1.97;1.83;;;23.90;88.30;;;;;;4863671;29;20479;-76
2022/05/24 12:59:56;;;;;;;2.90;2.00;;;23.90;88.00;;;;;;4864478;29;20480;-86
2022/05/24 13:02:33;;;;;;;4.43;2.20;;;23.90;88.00;;;;;;4866614;29;20568;-86
2022/05/24 13:05:10;;;;;;;2.83;2.27;;;23.90;87.60;;;;;;4868013;29;20480;-85
2022/05/24 13:07:45;;;;;;;2.87;2.03;;;23.90;86.90;;;;;;4868321;29;20472;-87
2022/05/24 13:10:21;;;;;;;2.70;2.50;;;23.90;86.60;;;;;;4866244;29;20799;-86
2022/05/24 13:12:50;;;;;;;2.53;1.87;;;23.90;86.90;;;;;;4865140;29;20476;-86
2022/05/24 13:15:20;;;;;;;2.17;2.07;;;24.00;87.30;;;;;;4865275;29;20514;-86
2022/05/24 13:17:52;;;;;;;1.90;1.80;;;24.10;87.90;;;;;;4865300;29;21203;-86
2022/05/24 13:20:31;;;;;;;2.30;2.20;;;24.20;88.10;;;;;;4864805;29;20568;-87
2022/05/24 13:23:00;;;;;;;2.47;2.27;;;24.30;87.80;;;;;;4863065;29;20495;-76
2022/05/24 13:25:44;;;;;;;2.53;2.33;;;24.30;87.40;;;;;;4862600;29;20845;-77
2022/05/24 13:28:14;;;;;;;2.60;2.40;;;24.30;87.10;;;;;;4862709;29;20484;-87
2022/05/24 13:33:36;;;;;;;2.80;2.60;;;24.30;85.90;;;;;;4863045;29;20518;-85
2022/05/24 13:36:18;;;;;;;2.40;2.30;;;24.30;85.80;;;;;;4864367;29;20532;-86
2022/05/24 13:38:47;;;;;;;2.80;2.60;;;24.30;85.80;;;;;;4864006;29;20619;-87
2022/05/24 13:41:29;;;;;;;2.80;2.60;;;24.30;86.00;;;;;;4863870;29;20555;-87
2022/05/24 13:44:20;;;;;;;4.03;3.73;;;24.30;86.10;;;;;;4862464;29;20536;-77
2022/05/24 13:46:51;;;;;;;3.77;3.57;;;24.20;86.30;;;;;;4863949;29;20480;-77
2022/05/24 13:49:30;;;;;;;3.03;2.83;;;24.20;86.60;;;;;;4880775;29;21021;-77
2022/05/24 13:52:27;;;;;;;2.97;2.77;;;24.20;86.60;;;;;;4870516;29;20563;-77
2022/05/24 13:55:13;;;;;;;2.80;2.47;;;24.10;87.20;;;;;;4862030;29;20480;-87
2022/05/24 13:57:58;;;;;;;2.93;2.73;;;24.00;87.40;;;;;;4865221;29;20491;-87
2022/05/24 14:00:40;;;;;;;2.87;2.53;;;24.10;87.90;;;;;;4865699;29;20496;-87
2022/05/24 14:03:21;;;;;;;2.80;2.60;;;24.10;88.20;;;;;;4873170;29;20505;-87
2022/05/24 14:05:51;;;;;;;3.07;2.67;;;24.10;88.40;;;;;;4880664;29;20475;-89
2022/05/24 14:08:19;;;;;;;3.37;2.37;;;24.10;88.50;;;;;;4863545;29;20476;-76
2022/05/24 14:11:07;;;;;;;3.40;3.13;;;24.00;89.80;;;;;;4860891;29;20531;-76
2022/05/24 14:13:35;;;;;;;5.20;3.40;;;24.00;90.80;;;;;;4859066;29;20966;-76
2022/05/24 14:16:02;;;;;;;5.60;5.17;;;23.90;91.90;;;;;;4861661;29;20480;-77
2022/05/24 14:18:30;;;;;;;5.50;5.00;;;23.80;92.50;;;;;;4862086;29;20469;-87
2022/05/24 14:20:59;;;;;;;4.80;4.17;;;23.60;93.40;;;;;;4863468;29;20979;-88
2022/05/24 14:23:26;;;;;;;3.80;3.50;;;23.50;94.60;;;;;;4863157;29;20564;-75
2022/05/24 14:25:59;;;;;;;3.20;2.90;;;23.30;95.00;;;;;;4863116;29;20484;-88
2022/05/24 14:28:26;;;;;;;4.63;3.70;;;23.20;95.50;;;;;;4862541;29;20844;-76
2022/05/24 14:30:55;;;;;;;6.00;5.50;;;23.00;95.60;;;;;;4862988;29;20507;-77
2022/05/24 14:33:23;;;;;;;3.43;3.23;;;22.90;95.80;;;;;;4860528;29;20486;-75
2022/05/24 14:35:53;;;;;;;2.93;2.73;;;22.70;95.60;;;;;;4861331;29;20512;-76
2022/05/24 14:38:23;;;;;;;3.00;2.70;;;22.60;95.40;;;;;;4860794;29;20491;-76
2022/05/24 14:40:51;;;;;;;3.20;2.40;;;22.40;95.40;;;;;;4862921;29;20977;-76
2022/05/24 14:43:23;;;;;;;2.50;2.17;;;22.30;95.50;;;;;;4860942;29;20536;-76
2022/05/24 14:45:50;;;;;;;1.63;1.53;;;22.10;95.50;;;;;;4861076;29;20995;-76
2022/05/24 14:48:18;;;;;;;2.00;1.90;;;22.00;95.20;;;;;;4873780;29;20479;-76
2022/05/24 14:50:46;;;;;;;2.93;2.10;;;21.80;94.90;;;;;;4879209;29;20476;-76
2022/05/24 14:53:13;;;;;;;2.80;2.50;;;21.70;95.00;;;;;;4860705;29;20589;-77
2022/05/24 14:55:41;;;;;;;1.97;1.87;;;21.60;95.20;;;;;;4861201;29;20483;-76
2022/05/24 14:58:09;;;;;;;2.00;1.90;;;21.60;95.50;;;;;;4861224;29;20559;-76
2022/05/24 15:00:36;;;;;;;2.83;2.63;;;21.50;95.30;;;;;;4860654;29;20532;-77
2022/05/24 15:03:07;;;;;;;1.93;1.83;;;21.40;95.00;;;;;;4861006;29;20482;-76
2022/05/24 15:05:35;;;;;;;3.80;2.53;;;21.40;94.70;;;;;;4861448;29;20482;-87
2022/05/24 15:16:33;;;;;;;2.57;1.97;;;21.20;93.50;;;;;;4844374;29;20471;-87
2022/05/24 15:19:00;;;;;;;2.20;1.93;;;21.10;93.30;;;;;;4863601;29;20471;-86
2022/05/24 15:21:32;;;;;;;2.30;2.10;;;21.10;93.20;;;;;;4863784;29;20479;-87
2022/05/24 15:24:05;;;;;;;2.73;2.53;;;21.10;93.10;;;;;;4862052;29;20470;-87
2022/05/24 15:26:35;;;;;;;2.07;1.97;;;21.10;93.20;;;;;;4862480;29;20544;-87
2022/05/24 15:29:04;;;;;;;1.83;1.73;;;21.10;93.00;;;;;;4860765;29;20523;-87
2022/05/24 15:31:31;;;;;;;1.93;1.80;;;21.00;92.90;;;;;;4861563;29;20478;-87
2022/05/24 15:34:00;;;;;;;2.83;1.80;;;21.00;92.60;;;;;;4854382;29;20503;-87
2022/05/24 15:36:35;;;;;;;3.83;1.80;;;21.00;92.40;;;;;;4865179;29;20484;-87
2022/05/24 15:39:03;;;;;;;4.27;3.60;;;21.00;92.40;;;;;;4863637;29;20478;-87
2022/05/24 15:41:32;;;;;;;4.70;3.80;;;21.00;92.40;;;;;;4863995;29;20485;-87
2022/05/24 15:44:00;;;;;;;3.60;2.60;;;21.00;92.20;;;;;;4862256;29;20500;-87
2022/05/24 15:46:28;;;;;;;3.17;2.93;;;21.00;92.10;;;;;;4863949;29;20997;-87
2022/05/24 15:48:55;;;;;;;4.10;3.80;;;21.10;92.10;;;;;;4884856;29;20486;-87
2022/05/24 15:51:23;;;;;;;2.60;2.40;;;21.00;92.10;;;;;;4880802;29;20524;-87
2022/05/24 15:53:52;;;;;;;2.40;2.30;;;21.10;91.80;;;;;;4867442;29;20548;-86
2022/05/24 15:56:20;;;;;;;1.80;1.70;;;21.10;91.90;;;;;;4867666;29;20513;-87
2022/05/24 15:58:48;;;;;;;1.73;1.63;;;21.20;92.00;;;;;;4867905;29;20476;-87
2022/05/24 16:01:17;;;;;;;1.87;1.77;;;21.20;92.20;;;;;;4859085;29;20871;-87
2022/05/24 16:03:49;;;;;;;2.27;1.47;;;21.20;92.50;;;;;;4870607;29;20479;-88
2022/05/24 16:12:16;;;;;;;2.60;2.40;;;21.50;92.60;;;;;;4865302;29;20498;-87
2022/05/24 16:14:46;;;;;;;4.57;2.10;;;21.50;92.50;;;;;;4870430;29;20463;-87
2022/05/24 16:17:16;;;;;;;2.30;2.03;;;21.60;92.70;;;;;;4869411;29;20563;-87
2022/05/24 16:19:45;;;;;;;2.17;1.97;;;21.50;92.60;;;;;;4870092;29;20481;-87
2022/05/24 16:22:18;;;;;;;1.77;1.67;;;21.50;92.60;;;;;;4866034;29;20955;-75
2022/05/24 16:24:50;;;;;;;5.40;4.90;;;21.60;92.40;;;;;;4863476;29;20459;-77
2022/05/24 16:27:17;;;;;;;3.60;3.40;;;21.60;92.00;;;;;;4867145;29;20512;-76
2022/05/24 16:29:47;;;;;;;3.20;2.90;;;21.60;91.70;;;;;;4864209;29;20977;-87
2022/05/24 16:32:16;;;;;;;4.20;3.80;;;21.60;91.60;;;;;;4875916;29;20484;-88
2022/05/24 16:34:46;;;;;;;4.33;3.93;;;21.60;91.60;;;;;;4860530;29;20528;-88
2022/05/24 16:37:14;;;;;;;3.67;3.37;;;21.60;91.90;;;;;;4877627;29;20491;-88
2022/05/24 16:39:41;;;;;;;3.40;2.37;;;21.60;91.60;;;;;;4879615;29;20555;-87
2022/05/24 16:42:15;;;;;;;2.47;2.37;;;21.60;91.50;;;;;;4870849;29;20511;-77
2022/05/24 16:48:14;;;;;;;2.90;2.70;;;21.60;91.30;;;;;;4872869;29;20482;-77
2022/05/24 16:50:43;;;;;;;3.63;3.10;;;21.70;91.30;;;;;;4881458;29;20549;-77
2022/05/24 16:53:11;;;;;;;3.60;3.13;;;21.70;91.20;;;;;;4845830;29;20541;-77
2022/05/24 16:59:03;;;;;;;2.80;2.60;;;21.60;90.60;;;;;;4870201;29;21005;-77
2022/05/24 17:01:40;;;;;;;3.63;2.97;;;21.50;90.70;;;;;;4874760;29;20994;-76
2022/05/24 17:04:12;;;;;;;3.37;2.63;;;21.50;90.70;;;;;;4881215;29;20483;-86
